logo
Games tagged Golf
# Game Release date
Price
Score rank
(Userscore / Metascore)
Owners
Players
Playtime (Median)
Developer(s)
Publisher(s)
1 PGA TOUR 2K21 Aug 20, 2020 $14.99N/A (N/A/77%)200,000 .. 500,0007.41%13:40 (17:56)HB Studios Multimedia Ltd.2K
2 The Golf Club 2019 featuring PGA TOUR Aug 28, 2018 $12.49N/A (N/A/72%)50,000 .. 100,0000%00:00 (00:00)HB Studios Multimedia Ltd.2K
3 The Golf Club Aug 19, 2014 $29.99N/A (N/A/70%)50,000 .. 100,0000%00:00 (00:00)HB StudiosHB Studios
4 Super Inefficient Golf Mar 15, 2018 $1.49N/A (N/A/69%)20,000 .. 50,0000%00:00 (00:00)34BigThings srl34BigThings srl
5 Vertiginous Golf Mar 7, 2014 $1.49N/A (N/A/63%)200,000 .. 500,0000%00:00 (00:00)Kinelco & Lone Elk CreativeFellow Traveller
6 Shot Online Jan 22, 2019 N/AN/A (N/A/59%)20,000 .. 50,0000%00:00 (00:00)WEBZEN ONNETWEBZEN
7 Dangerous Golf Jun 2, 2016 $19.99N/A (N/A/54%)100,000 .. 200,0000%00:00 (00:00)Three Fields EntertainmentThree Fields Entertainment
8 Golf With Your Friends May 19, 2020 $4.94N/A (N/A)2,000,000 .. 5,000,0002.12%01:24 (00:53)Blacklight Interactive, Team17Team17
9 WGT Golf Apr 13, 2020 FreeN/A (N/A)200,000 .. 500,0000%00:00 (00:00)Topgolf MediaTopgolf Media
10 Wonder Wickets Oct 17, 2018 $9.99N/A (N/A)0 .. 20,0000%00:00 (00:00)Rightstick StudiosRightstick Studios
11 Dream Golf VR Nov 3, 2017 FreeN/A (N/A)100,000 .. 200,0000%00:00 (00:00)Isaac StearnsIsaac Stearns
12 Infinite Mini Golf Jul 25, 2017 $3.74N/A (N/A)20,000 .. 50,0000%00:00 (00:00)Zen StudiosZen Studios
13 The Golf Club 2 Jun 27, 2017 N/AN/A (N/A)50,000 .. 100,0000%00:00 (00:00)HB StudiosMaximum Games
14 Golf It! Feb 17, 2017 $4.49N/A (N/A)1,000,000 .. 2,000,0000%00:00 (00:00)Perfuse EntertainmentPerfuse Entertainment
15 AffordaGolf Online Dec 22, 2016 FreeN/A (N/A)50,000 .. 100,0000%00:00 (00:00)Oryzhon StudiosOryzhon Studios
16 MiniGolf Mania Mar 25, 2016 N/AN/A (N/A)20,000 .. 50,0000%00:00 (00:00)Road Turtle GamesAxis Games
17 EnviroGolf Jan 15, 2014 FreeN/A (N/A)0 .. 20,0000%00:00 (00:00)Seemingly PointlessSeemingly Pointless
18 Mini Putt Camelot Jun 1, 2022 $9.99N/A (N/A)0 .. 20,0000%00:00 (00:00)Arctic ArcadeArctic Arcade
19 Golf Gang May 19, 2022 $6.99N/A (N/A)0 .. 20,00050%02:08 (01:04)Lazy Monday GamesCurve Games
20 Minigolf Adventure May 13, 2022 $1.24N/A (N/A)0 .. 20,0000%00:00 (00:00)Revulo GamesRevulo Games
21 Space Voyager Apr 28, 2022 $2.99N/A (N/A)20,000 .. 50,0000%00:00 (00:00)Double Dice GamesDouble Dice Games
22 Damien Crawford's Golf Experience 2022 Apr 26, 2022 $1.59N/A (N/A)0 .. 20,0000%00:00 (00:00)Cannibal InteractiveCannibal Interactive
23 Pinzzo Mar 21, 2022 $0.79N/A (N/A)0 .. 20,0000%00:00 (00:00)WellingtonWellington
24 Brendan Keogh's Putting Challenge Feb 24, 2022 $2.69N/A (N/A)0 .. 20,0000%00:00 (00:00)Brendan KeoghPaper House
25 Lunar Odyssey Feb 21, 2022 $9.99N/A (N/A)0 .. 20,0000%00:00 (00:00)Fractal Blue EntertainmentVisual Purple Inc.
26 Mini Mini-Golf Jan 28, 2022 $0.99N/A (N/A)0 .. 20,0000%00:00 (00:00)Piece Of VoxelPiece Of Voxel
27 RPGolf Legends Jan 19, 2022 $29.99N/A (N/A)0 .. 20,0000%00:00 (00:00)ArticNetKEMCO
28 Mini Golf Worlds VR Jan 11, 2022 $4.99N/A (N/A)0 .. 20,0000%00:00 (00:00)Maple Hill GamesMaple Hill Games
29 Smoots Golf Nov 18, 2021 $2.49N/A (N/A)0 .. 20,0000%00:00 (00:00)Kaneda GamesJanduSoft
30 Knockball pool Nov 7, 2021 $2.99N/A (N/A)0 .. 20,0000%00:00 (00:00)LGT SIALGT SIA
31 The Master Club Oct 18, 2021 $4.99N/A (N/A)0 .. 20,0000%00:00 (00:00)Midi CreationsMidi Creations
32 A Little Golf Journey Oct 14, 2021 $11.99N/A (N/A)0 .. 20,0000%00:00 (00:00)OkidokicoPlaytonic Friends
33 Me Vs You Sep 24, 2021 $15.99N/A (N/A)20,000 .. 50,0000%00:00 (00:00)Amped HorizonAmped Horizon
34 Casual Golf Aug 16, 2021 $0.49N/A (N/A)20,000 .. 50,0000%00:00 (00:00)NikiGamesNikiGames
35 EPEJSODION Lodge Jul 30, 2021 N/AN/A (N/A)0 .. 20,0000%00:00 (00:00)Tadeusz LorkowskiTadeusz Lorkowski
36 Eggy Jul 20, 2021 $10.99N/A (N/A)0 .. 20,0000%00:00 (00:00)Glenn VerheijKjoeb
37 Walkabout Mini Golf VR Jul 15, 2021 $11.24N/A (N/A)100,000 .. 200,00020%00:04 (00:01)Mighty CoconutMighty Coconut
38 Unreal Golf Jun 24, 2021 $0.49N/A (N/A)0 .. 20,0000%00:00 (00:00)Rex JuniorRex Junior
39 Disc Golf Valley Jun 9, 2021 $4.99N/A (N/A)0 .. 20,0000%00:00 (00:00)Latitude 64Latitude 64
40 Overlay Balls & Mouse Tails Jun 4, 2021 $1.39N/A (N/A)0 .. 20,0000%00:00 (00:00)SAG, SAGSAG
41 Brian the Brain Jun 3, 2021 $0.59N/A (N/A)0 .. 20,0000%00:00 (00:00)Richard BorgesRichard Borges
42 OGgolf May 29, 2021 $1.59N/A (N/A)0 .. 20,0000%00:00 (00:00)TecmibaTecmiba
43 Santa Soccer May 21, 2021 $0.99N/A (N/A)20,000 .. 50,0000%00:00 (00:00)Halara StudiosHalara Studios
44 Disc Golf Valley VR May 19, 2021 $19.99N/A (N/A)0 .. 20,0000%00:00 (00:00)Latitude 64Latitude 64
45 Golf With Your Grandmother May 6, 2021 $4.99N/A (N/A)0 .. 20,0000%00:00 (00:00)NevsramNevsram
46 Speedy Golf May 5, 2021 $14.99N/A (N/A)0 .. 20,0000%00:00 (00:00)Off The Deck GamesOff The Deck Games
47 Graviter Apr 8, 2021 $1.59N/A (N/A)0 .. 20,0000%00:00 (00:00)Emil MarkiewiczNo Gravity Games
48 GolfTopia Mar 30, 2021 $9.99N/A (N/A)20,000 .. 50,0000%00:00 (00:00)MinMax Games Ltd.MinMax Games Ltd.
49 Mage Drops Mar 19, 2021 $12.99N/A (N/A)0 .. 20,0000%00:00 (00:00)Orchid of RedemptionLamplight Forest
50 All-In-One Sports VR Feb 25, 2021 $19.99N/A (N/A)0 .. 20,0000%00:00 (00:00)Appnori Inc. Appnori Inc.
51 Golf Party Jan 29, 2021 $9.99N/A (N/A)0 .. 20,0000%00:00 (00:00)VoidFiller StudiosVoidFiller Studios
52 Macro golf Dec 14, 2020 $1.99N/A (N/A)0 .. 20,0000%00:00 (00:00)VitokVitok
53 Golf Around! Dec 4, 2020 $0.99N/A (N/A)20,000 .. 50,0000%00:00 (00:00)Steve HoughSteve Hough
54 Puzzling Peaks EXE Dec 2, 2020 $1.49N/A (N/A)0 .. 20,0000%00:00 (00:00)Darius Immanuel D. GuerreroAppSir Games
55 Off The Chains Disc Golf Nov 12, 2020 $11.24N/A (N/A)0 .. 20,0000%00:00 (00:00)Dream NerdyDream Nerdy
56 Fort Golf Sep 1, 2020 $2.99N/A (N/A)0 .. 20,0000%00:00 (00:00)Chromatic Junkyard StudiosChromatic Junkyard Studios
57 Mighty Fling Jul 20, 2020 $1.99N/A (N/A)0 .. 20,0000%00:00 (00:00)Hollow Art StudiosHollow Art Studios
58 Golf Masters Jul 13, 2020 $7.49N/A (N/A)0 .. 20,0000%00:00 (00:00)Ghost MachineGhost Machine
59 Golf On Mars Jul 3, 2020 $2.99N/A (N/A)0 .. 20,0000%00:00 (00:00)Captain GamesCaptain Games
60 Shuffs Jun 29, 2020 $2.99N/A (N/A)0 .. 20,0000%00:00 (00:00)Kyle HoskingNo Relation Games
61 Mini Golf Club May 29, 2020 $3.74N/A (N/A)0 .. 20,0000%00:00 (00:00)Obumo GamesObumo Games
62 Just Like Golf May 15, 2020 $0.49N/A (N/A)0 .. 20,0000%00:00 (00:00)SÚRSPILSÚRSPIL
63 disc party Apr 30, 2020 $1.49N/A (N/A)0 .. 20,0000%00:00 (00:00)Sokpop CollectiveSokpop Collective
64 Perfect Round Disc Golf Mar 12, 2020 $14.99N/A (N/A)0 .. 20,0000%00:00 (00:00)Tree Branch GamesTree Branch Games
65 Cloudlands 2 Jan 17, 2020 $19.99N/A (N/A)0 .. 20,0000%00:00 (00:00)FuturetownFuturetown
66 Encore Card Games Collection Dec 20, 2019 $19.99N/A (N/A)0 .. 20,0000%00:00 (00:00)WebfootEncore Software
67 Bolf Nov 19, 2019 $7.99N/A (N/A)0 .. 20,0000%00:00 (00:00)SimTeneroSimTenero
68 Golf98 Oct 17, 2019 $0.49N/A (N/A)0 .. 20,0000%00:00 (00:00)Studio InwardStudio Inward
69 Angry Golf Sep 13, 2019 $0.49N/A (N/A)0 .. 20,0000%00:00 (00:00)Tero Lunkka, Ruskija game experienceTero Lunkka
70 GOLF in PAPER Dec 13, 2019 $0.99N/A (N/A)0 .. 20,0000%00:00 (00:00)meokigamemeokigame
71 MiniGolf Mar 29, 2019 $2.99N/A (N/A)0 .. 20,0000%00:00 (00:00)Meridian93 StudioHH-Games
72 Puttin' Around Mar 6, 2019 $4.99N/A (N/A)0 .. 20,0000%00:00 (00:00)Better Games LLCBetter Games LLC
73 Resort Boss: Golf Feb 14, 2019 $6.49N/A (N/A)20,000 .. 50,0000%00:00 (00:00)Gus MartinExcalibur Publishing
74 Mini Golf Buddies Dec 18, 2018 $1.24N/A (N/A)0 .. 20,0000%00:00 (00:00)Obumo GamesObumo Games
75 Golf Peaks Nov 13, 2018 $2.49N/A (N/A)50,000 .. 100,0000%00:00 (00:00)AfterburnAfterburn
76 Nice Shot! The Gun Golfing Game Nov 9, 2018 $6.99N/A (N/A)0 .. 20,0000%00:00 (00:00)PolyGryph StudiosPolyGryph Studios
77 Cheap Golf Nov 5, 2018 $0.99N/A (N/A)0 .. 20,0000%00:00 (00:00)PixeljamPixeljam
78 Tee Time Golf Aug 31, 2018 $9.99N/A (N/A)20,000 .. 50,0000%00:00 (00:00)Barkers Crest Studio LLCBarkers Crest Studio LLC
79 Arcane Golf Jul 26, 2018 $1.49N/A (N/A)0 .. 20,0000%00:00 (00:00)FromLefcourt, thatgregperkinsFromLefcourt, thatgregperkins
80 Golf Galore Jul 12, 2018 $0.49N/A (N/A)50,000 .. 100,0000%00:00 (00:00)Golf Around Studio (Legacy)Golf Around Studio (Legacy)
81 Super Golf 2018 Jun 11, 2018 $0.51N/A (N/A)20,000 .. 50,0000%00:00 (00:00)Bullid GamesBullid Games
82 RPGolf May 9, 2018 $0.99N/A (N/A)0 .. 20,0000%00:00 (00:00)ArticNetChorus Worldwide Games
83 Mini Golf Arena Apr 21, 2018 $0.89N/A (N/A)0 .. 20,0000%00:00 (00:00)Evoluta StudioEvoluta Studio
84 Nicky - The Home Alone Golf Ball Apr 13, 2018 $0.99N/A (N/A)0 .. 20,0000%00:00 (00:00)MinimallabMinimallab
85 Trivia Vault: Golf Trivia Mar 29, 2018 $0.99N/A (N/A)0 .. 20,0000%00:00 (00:00)Ripknot SystemsRipknot Systems
86 Golfing Over It with Alva Majo Mar 28, 2018 $2.49N/A (N/A)100,000 .. 200,0000%00:00 (00:00)MajorariattoMajorariatto
87 Platform Golf Jan 2, 2018 $0.99N/A (N/A)0 .. 20,0000%00:00 (00:00)Patrick HofmannBytecrunch
88 Ballistic Mini Golf Oct 24, 2017 $1.24N/A (N/A)0 .. 20,0000%00:00 (00:00)Microlith GamesMicrolith Games
89 Golf 2D Oct 17, 2017 $0.99N/A (N/A)20,000 .. 50,0000%00:00 (00:00)RewindAppRewindApp
90 DOG GONE GOLFING Aug 25, 2017 $2.99N/A (N/A)0 .. 20,0000%00:00 (00:00)Vagabond DogVagabond Dog
91 Everyday Golf VR Jul 12, 2017 $14.99N/A (N/A)0 .. 20,0000%00:00 (00:00)WISECATWISECAT
92 Virtual Islands Sep 9, 2016 $3.99N/A (N/A)0 .. 20,0000%00:00 (00:00)Tim McCullochTim McCulloch
93 Golf for Workgroups Apr 6, 2017 $0.99N/A (N/A)0 .. 20,0000%00:00 (00:00)Cryptic SeaDevolver Digital
94 100ft Robot Golf Mar 16, 2017 $2.99N/A (N/A)20,000 .. 50,0000%00:00 (00:00)No GoblinNo Goblin
95 The Golf Club VR Feb 24, 2017 $9.99N/A (N/A)20,000 .. 50,0000%00:00 (00:00)HB StudiosHB Studios
96 Party Golf Oct 25, 2016 $1.49N/A (N/A)0 .. 20,0000%00:00 (00:00)Giant MargaritaGiant Margarita
97 Autumn Park Mini Golf Apr 2, 2015 $1.49N/A (N/A)0 .. 20,0000%00:00 (00:00)Serious TangentsSerious Tangents
98 Moonshot Galaxy Aug 24, 2016 $2.49N/A (N/A)0 .. 20,0000%00:00 (00:00)Liftoff LabsBig Fish Games
99 Mini Golf Mundo May 10, 2016 $1.49N/A (N/A)50,000 .. 100,0000%00:00 (00:00)EnsenaSoftEnsenaSoft
100 Perfect Golf May 3, 2016 $34.99N/A (N/A)100,000 .. 200,0000%00:00 (00:00)PERFECT PARALLELPerfect.Golf, Inc.
101 Cloudlands : VR Minigolf Apr 5, 2016 $19.99N/A (N/A)0 .. 20,0000%00:00 (00:00)FuturetownFuturetown
102 Star Balls Aug 18, 2015 $4.99N/A (N/A)0 .. 20,0000%00:00 (00:00)Bolder GamesBolder Games
103 3D MiniGolf May 29, 2015 $0.74N/A (N/A)0 .. 20,0000%00:00 (00:00)Z-Software GmbHfamilyplay
104 Desert Golfing Sep 1, 2014 $1.99N/A (N/A)0 .. 20,0000%00:00 (00:00)Captain GamesCaptain Games
105 Worms Crazy Golf Oct 19, 2011 $1.49N/A (N/A)200,000 .. 500,0000%00:00 (00:00)Team17 Digital LtdTeam17 Digital Ltd
106 3D Ultra Minigolf Adventures Dec 20, 2006 $3.29N/A (N/A)0 .. 20,0000%00:00 (00:00)Wanako GamesActivision
Overview

Golf

Games with this tag: 106
Average userscore: N/A%
Average metascore: 66.29%
Average playtime: 04:19
Total copies owned: 7,373,000
Average price: $6.17
Help

Owners: Estimated number of people owning this game. The number might be way too small for new releases and sometimes way too big for games that had free weekend event recently. Read more on About page.

Playtime: Average hours played in total per person that have actually launched this game since March 2009. This time is calculated for the whole lifetime, not for the particular year.

Average score: Average users and metacritic score for all games with this score assigned.

Average playtime: Average lifetime playtime for all games where this data is available.

Games in this genre: Self-explaining - number of games with this tag. Only inculdes games with sales data available.

Total copies owned: Refers to total copies of games with this tag acquired by users for the lifetime. Includes copies sold, downloaded for free and given out.

This number might be too small for recently released games or too big for games that had a free weekend in the last couple of months.

Graphs

Login required.

Please register or log in to see this information.

Login required.

Please register or log in to see this information.